Main page
METAR-TAF:

METAR-TAF

Airports :

Tirana International Airport Nënë Tereza

Tirana, Albania

latitude: 41-20N, longitude: 019-47E, elevation: 89 m

Current weather observation

The report was made 10 minutes ago, at 02:50 UTC
Wind 2 kt from the Southeast
Temperature 12°C
Humidity 88%
Pressure 1009 hPa
Visibility 10 km or more
no clouds below 1500 m and no cumulonimbus

METAR: LATI 030250Z 13002KT CAVOK 12/10 Q1009 NOSIG

Time: 05:00 (03:00 UTC)

Forecast

The report was made 4 hours and 0 minutes ago, at 23:00 UTC
Forecast valid from 03 at 00 UTC to 03 at 24 UTC
Wind 2 kt from variable directions
Visibility 10 km or more
no clouds below 1500 m and no cumulonimbus
Temporary
from 03 at 10 UTC to 03 at 17 UTC
Wind 12 kt from the Northwest

TAF: LATI 022300Z 0300/0324 VRB02KT CAVOK TX26/0312Z TN10/0303Z TEMPO 0310/0317 32012KT

Weather observations and forecasts of more than 4000 airports (METAR and TAF reports).

The available stations are represented by yellow and red dots on the map.

Hover mouse over dot to see the name of the station.

Then click to see weather observations and forecasts.

To change the map : click on the green buttons with a black cross to zoom in, on the green button with a dash to zoom out, or on the green arrows for adjacent maps.


METAR-TAF: